Aviation Digital Data Service (ADDS)

Output produced by METARs form (1812 UTC 03 May 2016)
found at http://aviationweather.gov/adds/metars/
 
KAEX 031722Z 0318/0418 36006KT P6SM SCT025 BKN035 
     FM040000 VRB03KT P6SM SKC